Santa Monica, CA (90401)

3:13 PM PDT on July 23, 2016 (GMT -0700)
santa monica | | Change Station

Elev 92 ft 34.00 °N, 118.48 °W | Updated 10 seconds ago

Scattered Clouds
Scattered Clouds
81.9 °F
Feels Like 85 °F
N
0.0
Wind Variable Wind from NW
Gusts 0.0 mph

Today
High -- | Low -- °F
--% Chance of Precip.
Yesterday
High -- | Low -- °F
Precip. -- in
Pressure 29.81 in
Visibility 10.0 miles
Clouds Scattered Clouds 9000 ft
Heat Index 85 °F
Dew Point 68 °F
Humidity 62%
Rainfall 0.00 in
Snow Depth Not available.
5:59 AM 8:01 PM
Waning Gibbous, 82% visible
METAR KSMO 232151Z 22007KT 10SM SCT090 28/18 A2981 RMK AO2 SLP092 FU SCT090 FG BNK SW-W T02830178
Pressure 29.81 in
Visibility 10.0 miles
Clouds Scattered Clouds 9000 ft
Heat Index 85 °F
Dew Point 68 °F
Humidity 62%
Rainfall 0.00 in
Snow Depth Not available.
5:59 AM 8:01 PM
Waning Gibbous, 82% visible
METAR KSMO 232151Z 22007KT 10SM SCT090 28/18 A2981 RMK AO2 SLP092 FU SCT090 FG BNK SW-W T02830178

10-Day Weather Forecast

Almanac

Astronomy

Jul. 23, 2016 Rise Set
Actual Time
Civil Twilight
Nautical Twilight
Astronomical Twilight
Moon
Length of Visible Light
Length of Day
Tomorrow will be .
, % of the Moon is Illuminated

Today's Extremes

State Highs State Lows

Community

WunderPhotos

Upload Photos

1,926,940 photos uploaded!

WunderBlog® & News

Nearby

Air Quality

  Air Quality AQ Index Pollutant
Not available.

Snow Depth

Station Depth Elevation

Earthquake Activity

City Distance Mag. Time & Date
Minimum magnitude displayed is 2.5.

Coastal Water Temperatures

Place Temperature

Stations

Nearby Weather Stations

Station Location Temp. Windchill Dew Point Humidity Wind Precip. Elev Updated Type
                   

Watches & Warnings

There are currently no watches in effect.